sensor_id;sensor_type;location;lat;lon;timestamp;pressure;altitude;pressure_sealevel;temperature;humidity
54978;BME280;40873;47.522;19.106;2023-05-20T00:01:54;100778.16;;;14.61;100.00
54978;BME280;40873;47.522;19.106;2023-05-20T00:04:20;100779.53;;;14.54;100.00
54978;BME280;40873;47.522;19.106;2023-05-20T00:06:48;100765.41;;;14.53;100.00
54978;BME280;40873;47.522;19.106;2023-05-20T00:09:14;100769.47;;;14.46;100.00
54978;BME280;40873;47.522;19.106;2023-05-20T00:11:46;100779.69;;;14.38;100.00
54978;BME280;40873;47.522;19.106;2023-05-20T00:14:13;100774.72;;;14.34;100.00
54978;BME280;40873;47.522;19.106;2023-05-20T00:16:40;100764.31;;;14.31;100.00
54978;BME280;40873;47.522;19.106;2023-05-20T00:19:07;100767.06;;;14.29;100.00
54978;BME280;40873;47.522;19.106;2023-05-20T00:21:34;100747.00;;;14.25;100.00
54978;BME280;40873;47.522;19.106;2023-05-20T00:24:01;100755.91;;;14.24;100.00
54978;BME280;40873;47.522;19.106;2023-05-20T00:26:29;100750.00;;;14.20;100.00
54978;BME280;40873;47.522;19.106;2023-05-20T00:28:56;100758.16;;;14.17;100.00
54978;BME280;40873;47.522;19.106;2023-05-20T00:31:23;100751.16;;;14.16;100.00
54978;BME280;40873;47.522;19.106;2023-05-20T00:33:51;100757.53;;;14.14;100.00
54978;BME280;40873;47.522;19.106;2023-05-20T00:36:21;100758.47;;;14.13;100.00
54978;BME280;40873;47.522;19.106;2023-05-20T00:38:51;100751.47;;;14.12;100.00
54978;BME280;40873;47.522;19.106;2023-05-20T00:41:19;100751.47;;;14.12;100.00
54978;BME280;40873;47.522;19.106;2023-05-20T00:43:47;100756.03;;;14.10;100.00
54978;BME280;40873;47.522;19.106;2023-05-20T00:46:15;100753.72;;;14.05;100.00
54978;BME280;40873;47.522;19.106;2023-05-20T00:48:43;100748.81;;;13.99;100.00
54978;BME280;40873;47.522;19.106;2023-05-20T00:51:12;100754.84;;;14.01;100.00
54978;BME280;40873;47.522;19.106;2023-05-20T00:53:41;100755.94;;;13.98;100.00
54978;BME280;40873;47.522;19.106;2023-05-20T00:56:10;100758.47;;;14.00;100.00
54978;BME280;40873;47.522;19.106;2023-05-20T00:58:40;100751.03;;;13.92;100.00
54978;BME280;40873;47.522;19.106;2023-05-20T01:01:07;100747.53;;;13.92;100.00
54978;BME280;40873;47.522;19.106;2023-05-20T01:03:35;100749.53;;;13.88;100.00
54978;BME280;40873;47.522;19.106;2023-05-20T01:06:03;100749.75;;;13.85;100.00
54978;BME280;40873;47.522;19.106;2023-05-20T01:08:30;100748.34;;;13.80;100.00
54978;BME280;40873;47.522;19.106;2023-05-20T01:11:07;100754.81;;;13.76;100.00
54978;BME280;40873;47.522;19.106;2023-05-20T01:13:48;100755.47;;;13.79;100.00
54978;BME280;40873;47.522;19.106;2023-05-20T01:16:17;100752.81;;;13.79;100.00
54978;BME280;40873;47.522;19.106;2023-05-20T01:18:46;100755.47;;;13.79;100.00
54978;BME280;40873;47.522;19.106;2023-05-20T01:21:16;100759.16;;;13.77;100.00
54978;BME280;40873;47.522;19.106;2023-05-20T01:23:44;100764.56;;;13.75;100.00
54978;BME280;40873;47.522;19.106;2023-05-20T01:26:11;100762.88;;;13.74;100.00
54978;BME280;40873;47.522;19.106;2023-05-20T01:28:40;100760.09;;;13.76;100.00
54978;BME280;40873;47.522;19.106;2023-05-20T01:31:28;100764.47;;;13.77;100.00
54978;BME280;40873;47.522;19.106;2023-05-20T01:33:58;100761.06;;;13.75;100.00
54978;BME280;40873;47.522;19.106;2023-05-20T01:36:27;100768.28;;;13.73;100.00
54978;BME280;40873;47.522;19.106;2023-05-20T01:38:55;100769.97;;;13.74;100.00
54978;BME280;40873;47.522;19.106;2023-05-20T01:41:24;100767.31;;;13.74;100.00
54978;BME280;40873;47.522;19.106;2023-05-20T01:43:53;100767.44;;;13.72;100.00
54978;BME280;40873;47.522;19.106;2023-05-20T01:46:21;100771.13;;;13.69;100.00
54978;BME280;40873;47.522;19.106;2023-05-20T01:48:48;100778.22;;;13.69;100.00
54978;BME280;40873;47.522;19.106;2023-05-20T01:51:18;100777.31;;;13.70;100.00
54978;BME280;40873;47.522;19.106;2023-05-20T01:53:45;100779.19;;;13.68;100.00
54978;BME280;40873;47.522;19.106;2023-05-20T01:56:12;100774.00;;;13.66;100.00
54978;BME280;40873;47.522;19.106;2023-05-20T01:58:39;100776.53;;;13.68;100.00
54978;BME280;40873;47.522;19.106;2023-05-20T02:01:07;100776.44;;;13.69;100.00
54978;BME280;40873;47.522;19.106;2023-05-20T02:03:35;100773.59;;;13.73;100.00
54978;BME280;40873;47.522;19.106;2023-05-20T02:06:03;100776.88;;;13.76;100.00
54978;BME280;40873;47.522;19.106;2023-05-20T02:08:30;100772.63;;;13.74;100.00
54978;BME280;40873;47.522;19.106;2023-05-20T02:10:57;100783.13;;;13.75;100.00
54978;BME280;40873;47.522;19.106;2023-05-20T02:13:24;100768.28;;;13.73;100.00
54978;BME280;40873;47.522;19.106;2023-05-20T02:15:52;100776.25;;;13.73;100.00
54978;BME280;40873;47.522;19.106;2023-05-20T02:18:22;100775.28;;;13.74;100.00
54978;BME280;40873;47.522;19.106;2023-05-20T02:20:52;100775.28;;;13.74;100.00
54978;BME280;40873;47.522;19.106;2023-05-20T02:23:19;100778.66;;;13.76;100.00
54978;BME280;40873;47.522;19.106;2023-05-20T02:25:46;100773.47;;;13.74;100.00
54978;BME280;40873;47.522;19.106;2023-05-20T02:28:16;100781.66;;;13.71;100.00
54978;BME280;40873;47.522;19.106;2023-05-20T02:30:46;100780.13;;;13.67;100.00
54978;BME280;40873;47.522;19.106;2023-05-20T02:33:13;100779.50;;;13.63;100.00
54978;BME280;40873;47.522;19.106;2023-05-20T02:35:40;100782.25;;;13.62;100.00
54978;BME280;40873;47.522;19.106;2023-05-20T02:38:08;100784.88;;;13.62;100.00
54978;BME280;40873;47.522;19.106;2023-05-20T02:40:35;100786.91;;;13.58;100.00
54978;BME280;40873;47.522;19.106;2023-05-20T02:43:03;100777.84;;;13.48;100.00
54978;BME280;40873;47.522;19.106;2023-05-20T02:45:30;100784.22;;;13.46;100.00
54978;BME280;40873;47.522;19.106;2023-05-20T02:47:57;100785.56;;;13.38;100.00
54978;BME280;40873;47.522;19.106;2023-05-20T02:50:24;100785.84;;;13.34;100.00
54978;BME280;40873;47.522;19.106;2023-05-20T02:52:51;100780.66;;;13.32;100.00
54978;BME280;40873;47.522;19.106;2023-05-20T02:55:19;100787.19;;;13.27;100.00
54978;BME280;40873;47.522;19.106;2023-05-20T02:57:47;100789.84;;;13.27;100.00
54978;BME280;40873;47.522;19.106;2023-05-20T03:00:14;100789.31;;;13.22;100.00
54978;BME280;40873;47.522;19.106;2023-05-20T03:02:42;100789.38;;;13.20;100.00
54978;BME280;40873;47.522;19.106;2023-05-20T03:05:09;100793.91;;;13.18;100.00
54978;BME280;40873;47.522;19.106;2023-05-20T03:07:36;100790.63;;;13.14;100.00
54978;BME280;40873;47.522;19.106;2023-05-20T03:10:04;100794.13;;;13.15;100.00
54978;BME280;40873;47.522;19.106;2023-05-20T03:12:34;100805.00;;;13.10;100.00
54978;BME280;40873;47.522;19.106;2023-05-20T03:15:01;100799.91;;;13.07;100.00
54978;BME280;40873;47.522;19.106;2023-05-20T03:17:29;100794.41;;;13.10;100.00
54978;BME280;40873;47.522;19.106;2023-05-20T03:19:57;100797.44;;;13.04;100.00
54978;BME280;40873;47.522;19.106;2023-05-20T03:22:24;100802.44;;;13.09;100.00
54978;BME280;40873;47.522;19.106;2023-05-20T03:24:51;100796.19;;;13.10;100.00
54978;BME280;40873;47.522;19.106;2023-05-20T03:27:18;100800.34;;;13.14;100.00
54978;BME280;40873;47.522;19.106;2023-05-20T03:29:45;100816.22;;;13.14;100.00
54978;BME280;40873;47.522;19.106;2023-05-20T03:32:13;100811.81;;;13.14;100.00
54978;BME280;40873;47.522;19.106;2023-05-20T03:34:41;100806.13;;;13.06;100.00
54978;BME280;40873;47.522;19.106;2023-05-20T03:37:08;100812.28;;;13.07;100.00
54978;BME280;40873;47.522;19.106;2023-05-20T03:39:36;100814.63;;;13.11;100.00
54978;BME280;40873;47.522;19.106;2023-05-20T03:42:04;100807.84;;;13.07;100.00
54978;BME280;40873;47.522;19.106;2023-05-20T03:44:31;100811.88;;;13.13;100.00
54978;BME280;40873;47.522;19.106;2023-05-20T03:46:59;100810.28;;;13.10;100.00
54978;BME280;40873;47.522;19.106;2023-05-20T03:49:26;100809.34;;;13.11;100.00
54978;BME280;40873;47.522;19.106;2023-05-20T03:51:53;100812.00;;;13.11;100.00
54978;BME280;40873;47.522;19.106;2023-05-20T03:54:21;100805.56;;;13.15;100.00
54978;BME280;40873;47.522;19.106;2023-05-20T03:56:48;100809.69;;;13.20;100.00
54978;BME280;40873;47.522;19.106;2023-05-20T03:59:17;100810.09;;;13.28;100.00
54978;BME280;40873;47.522;19.106;2023-05-20T04:01:44;100809.69;;;13.34;100.00
54978;BME280;40873;47.522;19.106;2023-05-20T04:04:12;100821.72;;;13.39;100.00
54978;BME280;40873;47.522;19.106;2023-05-20T04:06:39;100816.00;;;13.46;100.00
54978;BME280;40873;47.522;19.106;2023-05-20T04:09:10;100826.31;;;13.50;100.00
54978;BME280;40873;47.522;19.106;2023-05-20T04:11:36;100825.06;;;13.56;100.00
54978;BME280;40873;47.522;19.106;2023-05-20T04:14:04;100820.97;;;13.64;100.00
54978;BME280;40873;47.522;19.106;2023-05-20T04:16:31;100821.44;;;13.71;100.00
54978;BME280;40873;47.522;19.106;2023-05-20T04:18:58;100820.69;;;13.82;100.00
54978;BME280;40873;47.522;19.106;2023-05-20T04:21:26;100829.09;;;13.88;100.00
54978;BME280;40873;47.522;19.106;2023-05-20T04:23:54;100836.53;;;13.96;100.00
54978;BME280;40873;47.522;19.106;2023-05-20T04:26:22;100840.19;;;14.08;100.00
54978;BME280;40873;47.522;19.106;2023-05-20T04:28:49;100843.28;;;14.14;100.00
54978;BME280;40873;47.522;19.106;2023-05-20T04:31:16;100843.72;;;14.21;100.00
54978;BME280;40873;47.522;19.106;2023-05-20T04:33:44;100843.50;;;14.24;100.00
54978;BME280;40873;47.522;19.106;2023-05-20T04:36:12;100840.31;;;14.32;100.00
54978;BME280;40873;47.522;19.106;2023-05-20T04:38:42;100841.28;;;14.43;100.00
54978;BME280;40873;47.522;19.106;2023-05-20T04:41:10;100847.81;;;14.52;100.00
54978;BME280;40873;47.522;19.106;2023-05-20T04:43:37;100844.00;;;14.56;100.00
54978;BME280;40873;47.522;19.106;2023-05-20T04:46:06;100843.88;;;14.58;100.00
54978;BME280;40873;47.522;19.106;2023-05-20T04:48:33;100835.38;;;14.65;100.00
54978;BME280;40873;47.522;19.106;2023-05-20T04:51:00;100842.72;;;14.74;100.00
54978;BME280;40873;47.522;19.106;2023-05-20T04:53:28;100837.81;;;14.81;100.00
54978;BME280;40873;47.522;19.106;2023-05-20T04:55:56;100835.38;;;14.91;100.00
54978;BME280;40873;47.522;19.106;2023-05-20T04:58:23;100840.75;;;15.02;100.00
54978;BME280;40873;47.522;19.106;2023-05-20T05:00:51;100834.69;;;15.13;100.00
54978;BME280;40873;47.522;19.106;2023-05-20T05:03:18;100836.47;;;15.25;100.00
54978;BME280;40873;47.522;19.106;2023-05-20T05:05:48;100842.06;;;15.33;100.00
54978;BME280;40873;47.522;19.106;2023-05-20T05:08:15;100844.28;;;15.39;100.00
54978;BME280;40873;47.522;19.106;2023-05-20T05:10:44;100839.16;;;15.49;100.00
54978;BME280;40873;47.522;19.106;2023-05-20T05:13:11;100840.50;;;15.54;100.00
54978;BME280;40873;47.522;19.106;2023-05-20T05:15:37;100840.41;;;15.56;100.00
54978;BME280;40873;47.522;19.106;2023-05-20T05:18:05;100838.56;;;15.69;100.00
54978;BME280;40873;47.522;19.106;2023-05-20T05:20:32;100835.69;;;15.72;100.00
54978;BME280;40873;47.522;19.106;2023-05-20T05:22:59;100840.31;;;15.81;100.00
54978;BME280;40873;47.522;19.106;2023-05-20T05:25:26;100835.41;;;15.88;100.00
54978;BME280;40873;47.522;19.106;2023-05-20T05:27:53;100836.38;;;15.98;100.00
54978;BME280;40873;47.522;19.106;2023-05-20T05:30:20;100842.50;;;16.11;100.00
54978;BME280;40873;47.522;19.106;2023-05-20T05:32:48;100843.13;;;16.26;100.00
54978;BME280;40873;47.522;19.106;2023-05-20T05:35:15;100836.03;;;16.38;100.00
54978;BME280;40873;47.522;19.106;2023-05-20T05:37:45;100833.16;;;16.52;100.00
54978;BME280;40873;47.522;19.106;2023-05-20T05:40:12;100830.97;;;16.57;100.00
54978;BME280;40873;47.522;19.106;2023-05-20T05:42:40;100844.81;;;16.74;100.00
54978;BME280;40873;47.522;19.106;2023-05-20T05:45:08;100837.91;;;16.82;100.00
54978;BME280;40873;47.522;19.106;2023-05-20T05:47:35;100855.72;;;16.82;100.00
54978;BME280;40873;47.522;19.106;2023-05-20T05:50:09;100853.44;;;16.88;100.00
54978;BME280;40873;47.522;19.106;2023-05-20T05:52:38;100851.50;;;17.02;100.00
54978;BME280;40873;47.522;19.106;2023-05-20T05:55:08;100852.84;;;17.18;100.00
54978;BME280;40873;47.522;19.106;2023-05-20T05:57:38;100855.25;;;17.21;100.00
54978;BME280;40873;47.522;19.106;2023-05-20T06:00:06;100852.31;;;17.36;100.00
54978;BME280;40873;47.522;19.106;2023-05-20T06:02:33;100844.66;;;17.53;100.00
54978;BME280;40873;47.522;19.106;2023-05-20T06:05:02;100847.88;;;17.68;100.00
54978;BME280;40873;47.522;19.106;2023-05-20T06:07:33;100852.25;;;17.80;100.00
54978;BME280;40873;47.522;19.106;2023-05-20T06:10:01;100853.22;;;18.00;100.00
54978;BME280;40873;47.522;19.106;2023-05-20T06:12:28;100855.22;;;18.19;100.00
54978;BME280;40873;47.522;19.106;2023-05-20T06:14:55;100851.25;;;18.34;100.00
54978;BME280;40873;47.522;19.106;2023-05-20T06:17:22;100845.84;;;18.46;100.00
54978;BME280;40873;47.522;19.106;2023-05-20T06:19:49;100854.19;;;18.52;100.00
54978;BME280;40873;47.522;19.106;2023-05-20T06:22:22;100848.25;;;18.70;98.62
54978;BME280;40873;47.522;19.106;2023-05-20T06:24:49;100845.66;;;18.79;97.20
54978;BME280;40873;47.522;19.106;2023-05-20T06:27:18;100845.13;;;18.85;98.21
54978;BME280;40873;47.522;19.106;2023-05-20T06:29:48;100833.00;;;18.91;97.00
54978;BME280;40873;47.522;19.106;2023-05-20T06:32:15;100836.72;;;19.00;94.61
54978;BME280;40873;47.522;19.106;2023-05-20T06:34:42;100849.13;;;19.01;92.11
54978;BME280;40873;47.522;19.106;2023-05-20T06:37:09;100846.31;;;19.02;92.99
54978;BME280;40873;47.522;19.106;2023-05-20T06:39:44;100850.94;;;19.00;91.69
54978;BME280;40873;47.522;19.106;2023-05-20T06:42:13;100844.31;;;19.04;93.93
54978;BME280;40873;47.522;19.106;2023-05-20T06:44:40;100846.63;;;19.18;93.17
54978;BME280;40873;47.522;19.106;2023-05-20T06:47:07;100841.34;;;19.38;94.40
54978;BME280;40873;47.522;19.106;2023-05-20T06:49:34;100841.78;;;19.33;90.72
54978;BME280;40873;47.522;19.106;2023-05-20T06:52:02;100844.47;;;19.43;91.72
54978;BME280;40873;47.522;19.106;2023-05-20T06:54:31;100836.31;;;19.54;91.28
54978;BME280;40873;47.522;19.106;2023-05-20T06:57:01;100838.75;;;19.67;89.58
54978;BME280;40873;47.522;19.106;2023-05-20T06:59:28;100842.44;;;19.76;89.61
54978;BME280;40873;47.522;19.106;2023-05-20T07:01:55;100829.88;;;19.86;90.12
54978;BME280;40873;47.522;19.106;2023-05-20T07:04:24;100833.00;;;19.91;87.77
54978;BME280;40873;47.522;19.106;2023-05-20T07:06:51;100837.78;;;19.97;88.96
54978;BME280;40873;47.522;19.106;2023-05-20T07:09:18;100832.56;;;19.95;87.23
54978;BME280;40873;47.522;19.106;2023-05-20T07:11:45;100835.09;;;20.07;90.20
54978;BME280;40873;47.522;19.106;2023-05-20T07:14:12;100838.91;;;20.14;89.85
54978;BME280;40873;47.522;19.106;2023-05-20T07:16:39;100823.81;;;20.13;86.80
54978;BME280;40873;47.522;19.106;2023-05-20T07:19:10;100825.78;;;20.01;86.80
54978;BME280;40873;47.522;19.106;2023-05-20T07:21:37;100823.38;;;20.08;86.82
54978;BME280;40873;47.522;19.106;2023-05-20T07:24:04;100815.47;;;20.16;88.22
54978;BME280;40873;47.522;19.106;2023-05-20T07:26:32;100813.81;;;20.24;87.45
54978;BME280;40873;47.522;19.106;2023-05-20T07:29:03;100808.97;;;20.28;87.12
54978;BME280;40873;47.522;19.106;2023-05-20T07:31:30;100814.19;;;20.39;86.62
54978;BME280;40873;47.522;19.106;2023-05-20T07:33:57;100813.72;;;20.44;86.25
54978;BME280;40873;47.522;19.106;2023-05-20T07:36:26;100814.44;;;20.56;85.49
54978;BME280;40873;47.522;19.106;2023-05-20T07:38:54;100806.13;;;20.59;86.23
54978;BME280;40873;47.522;19.106;2023-05-20T07:41:30;100806.78;;;20.70;85.46
54978;BME280;40873;47.522;19.106;2023-05-20T07:43:57;100816.69;;;20.60;86.44
54978;BME280;40873;47.522;19.106;2023-05-20T07:46:27;100819.91;;;20.64;85.71
54978;BME280;40873;47.522;19.106;2023-05-20T07:48:54;100818.06;;;20.74;88.13
54978;BME280;40873;47.522;19.106;2023-05-20T07:51:22;100823.13;;;20.77;84.48
54978;BME280;40873;47.522;19.106;2023-05-20T07:53:53;100824.81;;;20.78;84.83
54978;BME280;40873;47.522;19.106;2023-05-20T07:56:20;100818.19;;;20.82;85.94
54978;BME280;40873;47.522;19.106;2023-05-20T07:58:52;100818.59;;;20.87;85.41
54978;BME280;40873;47.522;19.106;2023-05-20T08:01:19;100808.97;;;20.94;86.35
54978;BME280;40873;47.522;19.106;2023-05-20T08:03:47;100811.81;;;21.11;87.14
54978;BME280;40873;47.522;19.106;2023-05-20T08:06:14;100817.28;;;21.19;85.01
54978;BME280;40873;47.522;19.106;2023-05-20T08:08:42;100804.72;;;21.19;85.81
54978;BME280;40873;47.522;19.106;2023-05-20T08:11:09;100807.06;;;21.32;85.36
54978;BME280;40873;47.522;19.106;2023-05-20T08:13:36;100798.56;;;21.37;84.66
54978;BME280;40873;47.522;19.106;2023-05-20T08:16:03;100802.50;;;21.42;86.10
54978;BME280;40873;47.522;19.106;2023-05-20T08:18:33;100803.25;;;21.52;82.12
54978;BME280;40873;47.522;19.106;2023-05-20T08:21:01;100802.59;;;21.50;84.03
54978;BME280;40873;47.522;19.106;2023-05-20T08:23:28;100794.69;;;21.49;82.30
54978;BME280;40873;47.522;19.106;2023-05-20T08:25:58;100797.91;;;21.52;80.93
54978;BME280;40873;47.522;19.106;2023-05-20T08:28:28;100790.22;;;21.75;83.97
54978;BME280;40873;47.522;19.106;2023-05-20T08:30:56;100791.22;;;21.92;83.58
54978;BME280;40873;47.522;19.106;2023-05-20T08:33:27;100790.06;;;21.95;83.16
54978;BME280;40873;47.522;19.106;2023-05-20T08:35:54;100777.16;;;22.16;83.69
54978;BME280;40873;47.522;19.106;2023-05-20T08:38:22;100782.13;;;22.29;81.74
54978;BME280;40873;47.522;19.106;2023-05-20T08:40:54;100777.38;;;22.23;79.24
54978;BME280;40873;47.522;19.106;2023-05-20T08:43:25;100771.00;;;22.24;80.59
54978;BME280;40873;47.522;19.106;2023-05-20T08:45:52;100782.53;;;22.42;80.95
54978;BME280;40873;47.522;19.106;2023-05-20T08:48:22;100782.78;;;22.57;78.38
54978;BME280;40873;47.522;19.106;2023-05-20T08:50:54;100769.09;;;22.68;78.56
54978;BME280;40873;47.522;19.106;2023-05-20T08:53:23;100768.78;;;22.79;78.14
54978;BME280;40873;47.522;19.106;2023-05-20T08:55:55;100766.50;;;22.92;76.68
54978;BME280;40873;47.522;19.106;2023-05-20T08:58:31;100765.03;;;23.06;79.34
54978;BME280;40873;47.522;19.106;2023-05-20T09:01:01;100761.06;;;23.18;78.05
54978;BME280;40873;47.522;19.106;2023-05-20T09:03:28;100768.13;;;23.28;75.96
54978;BME280;40873;47.522;19.106;2023-05-20T09:06:06;100761.13;;;23.51;76.13
54978;BME280;40873;47.522;19.106;2023-05-20T09:08:41;100755.88;;;23.49;74.83
54978;BME280;40873;47.522;19.106;2023-05-20T09:11:12;100752.53;;;23.56;72.24
54978;BME280;40873;47.522;19.106;2023-05-20T09:13:39;100755.44;;;23.70;72.55
54978;BME280;40873;47.522;19.106;2023-05-20T09:16:08;100757.47;;;23.93;71.63
54978;BME280;40873;47.522;19.106;2023-05-20T09:18:39;100756.44;;;23.94;69.80
54978;BME280;40873;47.522;19.106;2023-05-20T09:21:09;100753.56;;;24.12;70.70
54978;BME280;40873;47.522;19.106;2023-05-20T09:23:37;100744.25;;;24.47;69.87
54978;BME280;40873;47.522;19.106;2023-05-20T09:26:04;100747.78;;;24.55;70.06
54978;BME280;40873;47.522;19.106;2023-05-20T09:28:31;100745.16;;;24.78;68.66
54978;BME280;40873;47.522;19.106;2023-05-20T09:30:59;100757.84;;;25.01;66.65
54978;BME280;40873;47.522;19.106;2023-05-20T09:33:30;100744.53;;;24.99;63.56
54978;BME280;40873;47.522;19.106;2023-05-20T09:36:07;100740.81;;;25.00;66.36
54978;BME280;40873;47.522;19.106;2023-05-20T09:38:37;100731.16;;;24.83;66.12
54978;BME280;40873;47.522;19.106;2023-05-20T09:41:07;100729.75;;;24.87;66.94
54978;BME280;40873;47.522;19.106;2023-05-20T09:43:37;100727.91;;;24.87;68.01
54978;BME280;40873;47.522;19.106;2023-05-20T09:46:06;100717.59;;;24.91;64.76
54978;BME280;40873;47.522;19.106;2023-05-20T09:48:36;100718.16;;;25.18;65.29
54978;BME280;40873;47.522;19.106;2023-05-20T09:51:07;100711.09;;;25.39;63.53
54978;BME280;40873;47.522;19.106;2023-05-20T09:53:34;100705.63;;;25.48;62.29
54978;BME280;40873;47.522;19.106;2023-05-20T09:56:02;100699.44;;;25.39;62.53
54978;BME280;40873;47.522;19.106;2023-05-20T09:58:29;100694.69;;;25.41;60.86
54978;BME280;40873;47.522;19.106;2023-05-20T10:00:57;100695.03;;;25.61;60.35
54978;BME280;40873;47.522;19.106;2023-05-20T10:03:24;100696.47;;;25.72;59.25
54978;BME280;40873;47.522;19.106;2023-05-20T10:14:28;100682.84;;;26.03;54.87
54978;BME280;40873;47.522;19.106;2023-05-20T10:17:11;100684.16;;;26.07;53.85
54978;BME280;40873;47.522;19.106;2023-05-20T10:19:40;100685.56;;;26.17;55.70
54978;BME280;40873;47.522;19.106;2023-05-20T10:22:09;100682.88;;;26.17;54.19
54978;BME280;40873;47.522;19.106;2023-05-20T10:24:42;100682.13;;;26.09;52.69
54978;BME280;40873;47.522;19.106;2023-05-20T10:27:11;100679.56;;;26.07;53.99
54978;BME280;40873;47.522;19.106;2023-05-20T10:29:42;100666.81;;;26.31;51.04
54978;BME280;40873;47.522;19.106;2023-05-20T10:32:10;100669.97;;;26.34;49.04
54978;BME280;40873;47.522;19.106;2023-05-20T10:34:48;100657.69;;;26.46;51.46
54978;BME280;40873;47.522;19.106;2023-05-20T10:37:31;100665.44;;;26.49;50.07
54978;BME280;40873;47.522;19.106;2023-05-20T10:40:10;100659.16;;;26.34;47.68
54978;BME280;40873;47.522;19.106;2023-05-20T10:42:38;100655.81;;;26.47;49.37
54978;BME280;40873;47.522;19.106;2023-05-20T10:45:06;100662.88;;;26.63;47.28
54978;BME280;40873;47.522;19.106;2023-05-20T10:47:34;100647.94;;;27.03;47.67
54978;BME280;40873;47.522;19.106;2023-05-20T10:50:02;100651.69;;;26.66;48.92
54978;BME280;40873;47.522;19.106;2023-05-20T10:52:35;100639.16;;;26.80;47.44
54978;BME280;40873;47.522;19.106;2023-05-20T10:55:02;100645.06;;;26.68;49.12
54978;BME280;40873;47.522;19.106;2023-05-20T10:57:36;100635.06;;;26.69;49.59
54978;BME280;40873;47.522;19.106;2023-05-20T11:00:05;100648.59;;;27.05;49.64
54978;BME280;40873;47.522;19.106;2023-05-20T11:02:36;100637.09;;;27.03;46.59
54978;BME280;40873;47.522;19.106;2023-05-20T11:05:04;100637.28;;;26.80;46.71
54978;BME280;40873;47.522;19.106;2023-05-20T11:07:32;100643.69;;;26.94;45.27
54978;BME280;40873;47.522;19.106;2023-05-20T11:09:59;100640.75;;;27.10;46.14
54978;BME280;40873;47.522;19.106;2023-05-20T11:12:29;100639.75;;;26.96;47.46
54978;BME280;40873;47.522;19.106;2023-05-20T11:14:57;100642.75;;;27.23;47.13
54978;BME280;40873;47.522;19.106;2023-05-20T11:17:24;100635.91;;;27.48;45.69
54978;BME280;40873;47.522;19.106;2023-05-20T11:19:51;100628.94;;;27.39;45.03
54978;BME280;40873;47.522;19.106;2023-05-20T11:22:18;100629.97;;;27.66;44.59
54978;BME280;40873;47.522;19.106;2023-05-20T11:24:48;100640.16;;;27.85;44.79
54978;BME280;40873;47.522;19.106;2023-05-20T11:27:17;100626.53;;;28.42;43.44
54978;BME280;40873;47.522;19.106;2023-05-20T11:29:49;100631.41;;;28.59;42.86
54978;BME280;40873;47.522;19.106;2023-05-20T11:32:18;100630.09;;;28.49;43.71
54978;BME280;40873;47.522;19.106;2023-05-20T11:34:50;100627.41;;;28.55;45.14
54978;BME280;40873;47.522;19.106;2023-05-20T11:37:17;100624.31;;;28.58;42.43
54978;BME280;40873;47.522;19.106;2023-05-20T11:39:45;100627.13;;;28.37;43.38
54978;BME280;40873;47.522;19.106;2023-05-20T11:42:14;100616.25;;;28.37;43.84
54978;BME280;40873;47.522;19.106;2023-05-20T11:44:42;100619.06;;;28.16;42.52
54978;BME280;40873;47.522;19.106;2023-05-20T11:47:11;100625.09;;;27.76;40.73
54978;BME280;40873;47.522;19.106;2023-05-20T11:49:39;100623.94;;;27.92;42.38
54978;BME280;40873;47.522;19.106;2023-05-20T11:52:11;100619.03;;;28.09;41.50
54978;BME280;40873;47.522;19.106;2023-05-20T11:54:38;100622.72;;;28.01;41.61
54978;BME280;40873;47.522;19.106;2023-05-20T11:57:05;100614.03;;;28.12;41.20
54978;BME280;40873;47.522;19.106;2023-05-20T11:59:36;100615.16;;;28.25;39.33
54978;BME280;40873;47.522;19.106;2023-05-20T12:02:03;100617.00;;;28.18;40.46
54978;BME280;40873;47.522;19.106;2023-05-20T12:04:30;100620.09;;;27.80;42.25
54978;BME280;40873;47.522;19.106;2023-05-20T12:06:58;100612.47;;;27.90;42.15
54978;BME280;40873;47.522;19.106;2023-05-20T12:09:25;100611.19;;;27.86;41.07
54978;BME280;40873;47.522;19.106;2023-05-20T12:11:55;100610.78;;;28.24;40.09
54978;BME280;40873;47.522;19.106;2023-05-20T12:14:22;100610.75;;;28.58;38.60
54978;BME280;40873;47.522;19.106;2023-05-20T12:16:49;100611.44;;;28.87;39.45
54978;BME280;40873;47.522;19.106;2023-05-20T12:19:17;100602.09;;;29.16;38.47
54978;BME280;40873;47.522;19.106;2023-05-20T12:21:47;100600.97;;;28.84;39.17
54978;BME280;40873;47.522;19.106;2023-05-20T12:24:14;100611.63;;;28.85;39.10
54978;BME280;40873;47.522;19.106;2023-05-20T12:26:41;100603.47;;;28.79;39.30
54978;BME280;40873;47.522;19.106;2023-05-20T12:29:08;100599.34;;;28.96;39.04
54978;BME280;40873;47.522;19.106;2023-05-20T12:31:35;100593.75;;;29.17;39.15
54978;BME280;40873;47.522;19.106;2023-05-20T12:34:02;100591.63;;;29.26;39.14
54978;BME280;40873;47.522;19.106;2023-05-20T12:36:30;100587.69;;;29.42;39.13
54978;BME280;40873;47.522;19.106;2023-05-20T12:38:57;100591.44;;;29.67;38.32
54978;BME280;40873;47.522;19.106;2023-05-20T12:41:24;100589.97;;;29.12;39.89
54978;BME280;40873;47.522;19.106;2023-05-20T12:43:54;100586.00;;;29.28;39.67
54978;BME280;40873;47.522;19.106;2023-05-20T12:46:21;100593.50;;;29.12;39.33
54978;BME280;40873;47.522;19.106;2023-05-20T12:48:48;100581.41;;;29.21;38.25
54978;BME280;40873;47.522;19.106;2023-05-20T12:51:15;100581.13;;;28.90;39.84